Terminal Aerodrome Forecast
Issued by NWS Charleston, SC

Home | Current Version | Previous Version | Text Only | Print | Product List | Glossary On
Versions: 1 2 3 4 5 6 7 8 9 10 11 12 13 14 15 16 17 18 19
000
FTUS42 KCHS 271307 AAA
TAFSAV
TAF AMD
KSAV 271307Z 2713/2812 14006KT P6SM SCT020 SCT150
      TEMPO 2713/2715 BKN025
     FM271500 14008KT P6SM SCT040
     FM280030 VRB03KT P6SM FEW025=

USA.gov is the U.S. government's official web portal to all federal, state and local government web resources and services.